Terminal Aerodrome Forecast
Issued by NWS Portland, ME

Home | Current Version | Previous Version | Text Only | Print | Product List | Glossary On
Versions: 1 2 3 4 5 6 7 8 9 10 11 12 13 14 15 16 17
000
FTUS41 KGYX 032320
TAFCON
TAF
KCON 032320Z 0400/0424 VRB06KT P6SM OVC100
     FM040300 16006KT 2SM -SN BR OVC015
     FM040500 17007KT 1 1/2SM -SN BR OVC007
     FM040700 16006KT 3SM -SN BR OVC015
     FM040900 19005KT P6SM BKN025
     FM041000 25007KT P6SM SCT030 BKN100=

USA.gov is the U.S. government's official web portal to all federal, state and local government web resources and services.